This is the latest recevied weather packets stored in our database for station/object DO6MJ-1. If no packets are shown the sender has not sent any weather packets the latest 10 day(s).
| Time | Temp. | Humidity | Pressure | Rain* | Wind** | Luminosity | Snow |
|---|---|---|---|---|---|---|---|
| 1787432604 | 13.33° C | 78% | 1012.2 hPa | 0 mm | - | - | - |
| 1787431403 | 13.89° C | 76% | 1012 hPa | 0 mm | - | - | - |
| 1787430203 | 14.44° C | 75% | 1012.1 hPa | 0 mm | - | - | - |
| 1787429003 | 15° C | 74% | 1012 hPa | 0 mm | - | - | - |
| 1787427802 | 15° C | 73% | 1011.8 hPa | 0 mm | - | - | - |
| 1787426602 | 15.56° C | 72% | 1011.7 hPa | 0 mm | - | - | - |
| 1787425402 | 15.56° C | 70% | 1011.5 hPa | 0 mm | - | - | - |
| 1787424202 | 16.67° C | 68% | 1011 hPa | 0 mm | - | - | - |
| 1787423001 | 17.22° C | 66% | 1010.8 hPa | 0 mm | - | - | - |
| 1787421801 | 17.78° C | 65% | 1010.7 hPa | 0 mm | - | - | - |
| 1787420601 | 18.33° C | 65% | 1010.5 hPa | 0 mm | - | - | - |
| 1787419400 | 18.33° C | 63% | 1010.1 hPa | 0 mm | - | - | - |
| 1787418200 | 18.89° C | 62% | 1010 hPa | 0 mm | - | - | - |
| 1787417000 | 18.89° C | 63% | 1009.8 hPa | 0 mm | - | - | - |
| 1787415799 | 18.89° C | 63% | 1009.7 hPa | 0 mm | - | - | - |
| 1787414599 | 18.89° C | 61% | 1009.6 hPa | 0 mm | - | - | - |
| 1787413399 | 18.89° C | 61% | 1009.6 hPa | 0 mm | - | - | - |
| 1787412199 | 18.89° C | 60% | 1009.3 hPa | 0 mm | - | - | - |
| 1787410999 | 19.44° C | 60% | 1009.3 hPa | 0 mm | - | - | - |
| 1787409798 | 20° C | 60% | 1009.2 hPa | 0 mm | - | - | - |
| 1787408598 | 20.56° C | 61% | 1009.1 hPa | 0 mm | - | - | - |
| 1787407398 | 19.44° C | 66% | 1009 hPa | 0 mm | - | - | - |
| 1787406197 | 17.22° C | 76% | 1008.9 hPa | 1.02 mm | - | - | - |
| 1787404997 | 16.11° C | 81% | 1008.9 hPa | 1.02 mm | - | - | - |
| 1787403797 | 17.78° C | 68% | 1008.9 hPa | 1.02 mm | - | - | - |
* Rain latest hour (hover to see other rain measurements)
** Current wind speed in m/s (hover to see current wind gust speed)